Accueil
METAR-TAF:

METAR-TAF

Aéroports :

Rock Hill/York County Airport (Bryant Field)

Rock Hill, Caroline du Sud, États-Unis

latitude: 34-59-02N, longitude: 081-03-21W, altitude: 204 m

Observation

Le bulletin a été fait il y a 46 minutes, à 11:54 UTC
Vent calme
Température 10°C
Humidité 76%
Pression 1015 hPa
Visibilité: 16.1 km
Ciel clair

METAR: KUZA 041154Z AUTO 00000KT 10SM CLR 10/06 A2998 RMK AO2 SLP149 T01000061 10106 20072 53015

Heure: 08:40 (12:40 UTC)


TAF: absent

Observations et prévisions météorologiques de plus de 4000 aéroports (messages METAR et TAF).

Les stations disponibles sont représentées par des disques jaunes et rouges sur la carte.

Passer la souris dessus pour voir le nom de la station.

Cliquer dessus pour voir les observations et prévisions météorologiques.

Pour changer de carte: cliquez sur les boutons verts avec une croix noire pour zoomer, sur le bouton vert avec un tiret pour effectuer un zoom arrière, ou sur les flèches vertes pour les cartes adjacentes.


METAR-TAF: